Orbital elements of COSMOS 1275 DEB
| Launched | 3 June 1981 |
| Flight ended | – |
| Launch site | Plesetsk Missile and Space Complex, Russia |
| Owner | Commonwealth of Independent States (former USSR) |
| NORAD ID | 18637 |
| Date fetched |
Epoch osculation |
Inc. [°] |
Ecc. | RA asc node [hr] |
Arg Peri. [°] |
Mean anom [°] |
Mean motion [rev/day] |
Abs. mag |
| Date fetched |
Epoch osculation |
Inc. [°] |
Ecc. | RA asc node [hr] |
Arg Peri. [°] |
Mean anom [°] |
Mean motion [rev/day] |
Abs. mag |
| 2026 May 08 17:57 | 2026 May 04 11:58:01 | 82.9601 | 0.00472 | 19.9865 | 262.2280 | 97.3548 | 14.25987 | – |
| 2026 May 07 17:58 | 2026 May 04 11:58:01 | 82.9601 | 0.00472 | 19.9865 | 262.2280 | 97.3548 | 14.25987 | – |
| 2026 May 06 17:57 | 2026 May 04 11:58:01 | 82.9601 | 0.00472 | 19.9865 | 262.2280 | 97.3548 | 14.25987 | – |
| 2026 May 05 17:57 | 2026 May 04 11:58:01 | 82.9601 | 0.00472 | 19.9865 | 262.2280 | 97.3548 | 14.25987 | – |
| 2026 May 04 17:57 | 2026 Apr 30 11:58:32 | 82.9590 | 0.00471 | 20.2011 | 274.9790 | 97.3548 | 14.25987 | – |
| 2026 May 03 17:57 | 2026 Apr 30 11:58:32 | 82.9590 | 0.00471 | 20.2011 | 274.9790 | 97.3548 | 14.25987 | – |
| 2026 May 02 17:57 | 2026 Apr 30 11:58:32 | 82.9590 | 0.00471 | 20.2011 | 274.9790 | 97.3548 | 14.25987 | – |
| 2026 May 01 17:56 | 2026 Apr 30 11:58:32 | 82.9590 | 0.00471 | 20.2011 | 274.9790 | 97.3548 | 14.25987 | – |
| 2026 Apr 30 17:56 | 2026 Apr 30 11:58:32 | 82.9590 | 0.00471 | 20.2011 | 274.9790 | 97.3548 | 14.25987 | – |
| 2026 Apr 29 17:57 | 2026 Apr 24 12:49:38 | 82.9599 | 0.00472 | 20.5210 | 293.9027 | 97.3548 | 14.25987 | – |
| 2026 Apr 28 17:56 | 2026 Apr 24 12:49:38 | 82.9599 | 0.00472 | 20.5210 | 293.9027 | 97.3548 | 14.25987 | – |
| 2026 Apr 27 17:58 | 2026 Apr 24 12:49:38 | 82.9599 | 0.00472 | 20.5210 | 293.9027 | 97.3548 | 14.25987 | – |
| 2026 Apr 26 17:58 | 2026 Apr 24 12:49:38 | 82.9599 | 0.00472 | 20.5210 | 293.9027 | 97.3548 | 14.25987 | – |
| 2026 Apr 25 17:58 | 2026 Apr 24 12:49:38 | 82.9599 | 0.00472 | 20.5210 | 293.9027 | 97.3548 | 14.25987 | – |
| 2026 Apr 24 17:59 | 2026 Apr 24 12:49:38 | 82.9599 | 0.00472 | 20.5210 | 293.9027 | 97.3548 | 14.25987 | – |
| 2026 Apr 23 17:57 | 2026 Apr 19 06:31:00 | 82.9597 | 0.00477 | 20.8033 | 310.4735 | 97.3548 | 14.25987 | – |
| 2026 Apr 22 17:57 | 2026 Apr 19 06:31:00 | 82.9597 | 0.00477 | 20.8033 | 310.4735 | 97.3548 | 14.25987 | – |
| 2026 Apr 21 17:57 | 2026 Apr 19 06:31:00 | 82.9597 | 0.00477 | 20.8033 | 310.4735 | 97.3548 | 14.25987 | – |
| 2026 Apr 20 17:57 | 2026 Apr 19 06:31:00 | 82.9597 | 0.00477 | 20.8033 | 310.4735 | 97.3548 | 14.25987 | – |
| 2026 Apr 19 17:58 | 2026 Apr 19 06:31:00 | 82.9597 | 0.00477 | 20.8033 | 310.4735 | 97.3548 | 14.25987 | – |
| 2026 Apr 18 17:56 | 2026 Apr 13 00:37:33 | 82.9619 | 0.00484 | 21.1382 | 329.7897 | 97.3548 | 14.25987 | – |
| 2026 Apr 16 17:57 | 2026 Apr 13 00:37:33 | 82.9619 | 0.00484 | 21.1382 | 329.7897 | 97.3548 | 14.25987 | – |
| 2026 Apr 14 17:57 | 2026 Apr 13 00:37:33 | 82.9619 | 0.00484 | 21.1382 | 329.7897 | 97.3548 | 14.25987 | – |
| 2026 Apr 13 17:57 | 2026 Apr 13 00:37:33 | 82.9619 | 0.00484 | 21.1382 | 329.7897 | 97.3548 | 14.25987 | – |
| 2026 Apr 12 17:57 | 2026 Apr 07 01:28:08 | 82.9622 | 0.00492 | 21.4580 | 347.8594 | 97.3548 | 14.25987 | – |
| 2026 Apr 11 17:57 | 2026 Apr 07 01:28:08 | 82.9622 | 0.00492 | 21.4580 | 347.8594 | 97.3548 | 14.25987 | – |